createdAt,value
2023-01-05T00:00:31.166Z,72.30
2023-01-05T00:03:04.535Z,71.43
2023-01-05T00:05:37.826Z,74.93
2023-01-05T00:08:11.324Z,66.25
2023-01-05T00:11:02.425Z,72.40
2023-01-05T00:13:53.881Z,66.97
2023-01-05T00:16:46.607Z,64.03
2023-01-05T00:19:37.582Z,62.63
2023-01-05T00:22:35.267Z,67.28
2023-01-05T00:25:12.939Z,69.03
2023-01-05T00:27:50.712Z,64.13
2023-01-05T00:30:26.760Z,72.88
2023-01-05T00:33:01.688Z,68.43
2023-01-05T00:35:34.885Z,71.80
2023-01-05T00:38:08.537Z,66.15
2023-01-05T00:40:41.736Z,70.60
2023-01-05T00:43:15.253Z,65.95
2023-01-05T00:45:48.812Z,63.75
2023-01-05T00:48:23.508Z,73.38
2023-01-05T00:50:56.703Z,63.22
2023-01-05T00:53:29.963Z,74.50
2023-01-05T00:56:03.171Z,72.00
2023-01-05T00:58:36.412Z,71.88
2023-01-05T01:01:12.963Z,67.32
2023-01-05T01:03:48.227Z,74.03
2023-01-05T01:06:21.582Z,69.47
2023-01-05T01:08:54.761Z,68.03
2023-01-05T01:11:28.084Z,70.88
2023-01-05T01:14:02.236Z,68.43
2023-01-05T01:16:37.293Z,83.28
2023-01-05T01:19:15.709Z,72.07
2023-01-05T01:21:49.157Z,64.25
2023-01-05T01:24:24.058Z,80.78
2023-01-05T01:26:57.736Z,66.13
2023-01-05T01:29:31.848Z,69.55
2023-01-05T01:32:05.801Z,74.40
2023-01-05T01:34:40.597Z,79.38
2023-01-05T01:37:14.185Z,75.60
2023-01-05T01:39:47.678Z,80.03
2023-01-05T01:42:23.475Z,82.35
2023-01-05T01:44:59.408Z,87.25
2023-01-05T01:47:39.276Z,85.70
2023-01-05T01:50:19.335Z,89.78
2023-01-05T01:52:55.961Z,94.30
2023-01-05T01:55:31.343Z,83.82
2023-01-05T01:58:11.330Z,92.15
2023-01-05T02:00:46.375Z,84.43
2023-01-05T02:03:19.814Z,88.75
2023-01-05T02:05:55.157Z,79.15
2023-01-05T02:08:32.363Z,80.40
2023-01-05T02:11:23.816Z,70.55
2023-01-05T02:14:13.386Z,78.50
2023-01-05T02:16:58.496Z,85.15
2023-01-05T02:20:22.232Z,67.15
2023-01-05T02:23:23.826Z,74.65
2023-01-05T02:26:41.802Z,77.72
2023-01-05T02:29:48.112Z,70.63
2023-01-05T02:32:29.903Z,73.72
2023-01-05T02:35:14.730Z,74.50
2023-01-05T02:37:57.429Z,88.20
2023-01-05T02:40:37.693Z,81.10
2023-01-05T02:43:15.208Z,81.47
2023-01-05T02:45:49.400Z,74.63
2023-01-05T02:48:24.327Z,87.75
2023-01-05T02:51:02.334Z,85.30
2023-01-05T02:53:41.473Z,86.72
2023-01-05T02:56:20.510Z,81.38
2023-01-05T02:58:57.316Z,76.80
2023-01-05T03:01:34.384Z,81.85
2023-01-05T03:04:13.510Z,78.38
2023-01-05T03:06:56.412Z,75.22
2023-01-05T03:09:36.695Z,69.80
2023-01-05T03:12:35.139Z,71.25
2023-01-05T03:15:18.599Z,74.20
2023-01-05T03:17:56.771Z,77.03
2023-01-05T03:20:34.774Z,65.60
2023-01-05T03:23:30.331Z,72.65
2023-01-05T03:26:21.213Z,76.00
2023-01-05T03:29:15.094Z,83.10
2023-01-05T03:32:09.836Z,66.25
2023-01-05T03:35:05.694Z,70.20
2023-01-05T03:37:45.304Z,59.13
2023-01-05T03:40:24.118Z,66.55
2023-01-05T03:42:58.105Z,56.72
2023-01-05T03:48:08.372Z,65.50
2023-01-05T03:50:41.527Z,63.40
2023-01-05T03:53:16.464Z,60.33
2023-01-05T03:55:49.857Z,59.42
2023-01-05T03:58:23.090Z,71.63
2023-01-05T04:00:56.244Z,69.43
2023-01-05T04:03:31.858Z,67.05
2023-01-05T04:06:05.835Z,63.53
2023-01-05T04:08:40.761Z,65.90
2023-01-05T04:11:18.833Z,71.13
2023-01-05T04:13:52.878Z,64.68
2023-01-05T04:16:28.722Z,69.72
2023-01-05T04:19:02.091Z,72.88
2023-01-05T04:21:35.412Z,71.60
2023-01-05T04:24:12.469Z,66.18
2023-01-05T04:26:45.675Z,65.57
2023-01-05T04:29:18.916Z,66.75
2023-01-05T04:31:52.024Z,64.75
2023-01-05T04:34:25.251Z,71.63
2023-01-05T04:36:58.814Z,77.93
2023-01-05T04:39:33.891Z,72.90
2023-01-05T04:42:07.104Z,71.55
2023-01-05T04:44:40.361Z,78.05
2023-01-05T04:47:13.673Z,77.55
2023-01-05T04:49:47.025Z,64.80
2023-01-05T04:52:20.384Z,76.03
2023-01-05T04:54:55.536Z,68.03
2023-01-05T04:57:28.961Z,75.63
2023-01-05T05:00:02.586Z,77.05
2023-01-05T05:02:36.372Z,70.60
2023-01-05T05:05:10.136Z,74.38
2023-01-05T05:07:43.269Z,71.32
2023-01-05T05:10:18.255Z,82.45
2023-01-05T05:12:55.015Z,84.90
2023-01-05T05:15:28.813Z,90.47
2023-01-05T05:18:08.622Z,91.55
2023-01-05T05:20:45.293Z,110.45
2023-01-05T05:23:19.050Z,98.68
2023-01-05T05:25:54.325Z,109.90
2023-01-05T05:28:28.773Z,121.03
2023-01-05T05:31:02.309Z,120.20
2023-01-05T05:33:38.042Z,101.13
2023-01-05T05:36:11.859Z,94.88
2023-01-05T05:38:45.614Z,93.55
2023-01-05T05:41:20.537Z,169.73
2023-01-05T05:43:53.842Z,168.85
2023-01-05T05:46:27.129Z,166.88
2023-01-05T05:49:00.809Z,169.43
2023-01-05T05:54:07.992Z,124.75
2023-01-05T05:56:42.500Z,120.07
2023-01-05T05:59:15.823Z,120.43
2023-01-05T06:01:49.163Z,117.03
2023-01-05T06:04:23.149Z,120.60
2023-01-05T06:06:56.458Z,129.90
2023-01-05T06:09:30.054Z,127.68
2023-01-05T06:12:06.331Z,124.65
2023-01-05T06:14:39.726Z,117.03
2023-01-05T06:17:13.243Z,104.57
2023-01-05T06:19:46.772Z,99.32
2023-01-05T06:22:20.316Z,111.15
2023-01-05T06:27:29.961Z,95.82
2023-01-05T06:30:03.604Z,132.90
2023-01-05T06:32:37.160Z,127.63
2023-01-05T06:35:11.213Z,132.20
2023-01-05T06:37:44.683Z,123.05
2023-01-05T06:40:18.654Z,115.53
2023-01-05T06:42:53.546Z,110.28
2023-01-05T06:45:28.159Z,110.75
2023-01-05T06:48:01.411Z,107.05
2023-01-05T06:50:35.112Z,123.30
2023-01-05T06:53:08.351Z,116.28
2023-01-05T06:55:42.007Z,120.97
2023-01-05T06:58:16.848Z,100.47
2023-01-05T07:00:51.955Z,104.50
2023-01-05T07:03:25.241Z,112.13
2023-01-05T07:05:58.419Z,114.35
2023-01-05T07:08:31.918Z,112.55
2023-01-05T07:11:05.328Z,107.90
2023-01-05T07:13:40.789Z,103.47
2023-01-05T07:16:14.739Z,95.43
2023-01-05T07:18:48.144Z,87.70
2023-01-05T07:21:21.645Z,102.60
2023-01-05T07:23:54.838Z,90.55
2023-01-05T07:26:28.031Z,107.05
2023-01-05T07:29:02.925Z,93.82
2023-01-05T07:31:36.622Z,96.55
2023-01-05T07:34:10.093Z,106.93
2023-01-05T07:36:43.280Z,102.20
2023-01-05T07:39:17.110Z,98.15
2023-01-05T07:44:25.432Z,108.07
2023-01-05T07:46:59.279Z,109.50
2023-01-05T07:49:32.582Z,110.65
2023-01-05T07:52:06.120Z,124.82
2023-01-05T07:54:39.246Z,121.47
2023-01-05T07:57:12.651Z,99.55
2023-01-05T07:59:47.264Z,102.95
2023-01-05T08:02:21.530Z,106.97
2023-01-05T08:04:55.574Z,101.53
2023-01-05T08:07:28.807Z,103.93
2023-01-05T08:10:19.440Z,100.45
2023-01-05T08:13:11.253Z,100.82
2023-01-05T08:15:51.095Z,101.13
2023-01-05T08:18:25.478Z,115.72
2023-01-05T08:21:00.850Z,133.48
2023-01-05T08:23:34.345Z,148.73
2023-01-05T08:26:09.688Z,124.60
2023-01-05T08:28:43.796Z,127.40
2023-01-05T08:31:21.192Z,139.45
2023-01-05T08:33:57.887Z,124.20
2023-01-05T08:36:32.970Z,120.15
2023-01-05T08:39:06.322Z,111.00
2023-01-05T08:41:41.785Z,110.18
2023-01-05T08:44:16.133Z,140.15
2023-01-05T08:49:24.790Z,127.57
2023-01-05T08:52:00.759Z,85.22
2023-01-05T08:54:34.051Z,90.97
2023-01-05T08:57:07.264Z,106.88
2023-01-05T08:59:40.788Z,110.20
2023-01-05T09:02:21.702Z,102.00
2023-01-05T09:04:58.641Z,100.30
2023-01-05T09:07:32.191Z,86.22
2023-01-05T09:10:06.471Z,84.40
2023-01-05T09:12:41.166Z,87.50
2023-01-05T09:15:14.954Z,77.55
2023-01-05T09:17:50.150Z,75.53
2023-01-05T09:20:23.464Z,67.82
2023-01-05T09:22:56.805Z,69.72
2023-01-05T09:25:30.308Z,67.40
2023-01-05T09:28:03.749Z,66.90
2023-01-05T09:30:45.671Z,68.40
2023-01-05T09:33:23.366Z,64.65
2023-01-05T09:35:56.795Z,61.95
2023-01-05T09:38:30.892Z,59.58
2023-01-05T09:41:08.911Z,54.60
2023-01-05T09:43:44.239Z,52.22
2023-01-05T09:46:22.597Z,54.42
2023-01-05T09:49:00.250Z,54.50
2023-01-05T09:51:34.216Z,52.58
2023-01-05T09:54:08.504Z,52.80
2023-01-05T09:59:41.896Z,47.42
2023-01-05T10:02:33.925Z,57.40
2023-01-05T10:05:13.002Z,42.28
2023-01-05T10:07:51.293Z,48.17
2023-01-05T10:10:43.247Z,48.55
2023-01-05T10:13:25.755Z,46.72
2023-01-05T10:15:59.826Z,45.72
2023-01-05T10:18:34.708Z,41.20
2023-01-05T10:21:16.892Z,43.38
2023-01-05T10:24:01.972Z,44.65
2023-01-05T10:27:14.254Z,53.65
2023-01-05T10:29:46.037Z,43.92
2023-01-05T10:32:26.280Z,41.22
2023-01-05T10:35:03.025Z,46.88
2023-01-05T10:37:58.184Z,38.85
2023-01-05T10:40:46.009Z,42.03
2023-01-05T10:43:40.933Z,42.20
2023-01-05T10:46:40.013Z,48.33
2023-01-05T10:49:14.717Z,42.50
2023-01-05T10:51:54.571Z,43.88
2023-01-05T10:54:38.396Z,37.85
2023-01-05T10:57:40.889Z,39.00
2023-01-05T11:00:17.298Z,45.75
2023-01-05T11:02:53.835Z,41.50
2023-01-05T11:05:31.833Z,35.42
2023-01-05T11:08:14.491Z,40.70
2023-01-05T11:10:56.891Z,38.85
2023-01-05T11:13:33.880Z,42.17
2023-01-05T11:16:12.907Z,42.85
2023-01-05T11:18:50.643Z,39.38
2023-01-05T11:21:25.039Z,47.08
2023-01-05T11:24:00.132Z,41.00
2023-01-05T11:26:49.781Z,39.45
2023-01-05T11:29:23.819Z,37.33
2023-01-05T11:32:00.114Z,36.45
2023-01-05T11:34:43.899Z,36.42
2023-01-05T11:37:26.477Z,37.70
2023-01-05T11:40:02.604Z,32.92
2023-01-05T11:42:43.446Z,38.83
2023-01-05T11:45:24.479Z,40.42
2023-01-05T11:48:00.778Z,33.22
2023-01-05T11:50:44.549Z,31.63
2023-01-05T11:53:37.252Z,38.20
2023-01-05T11:56:21.516Z,33.92
2023-01-05T11:58:57.931Z,36.75
2023-01-05T12:02:00.128Z,33.92
2023-01-05T12:05:02.231Z,34.83
2023-01-05T12:07:37.144Z,39.00
2023-01-05T12:10:43.305Z,34.90
2023-01-05T12:13:38.421Z,36.42
2023-01-05T12:16:30.865Z,36.95
2023-01-05T12:19:29.753Z,36.55
2023-01-05T12:22:42.380Z,32.78
2023-01-05T12:25:33.547Z,34.60
2023-01-05T12:28:29.580Z,34.63
2023-01-05T12:34:43.861Z,32.30
2023-01-05T12:37:30.252Z,30.88
2023-01-05T12:40:33.183Z,32.50
2023-01-05T12:43:10.974Z,33.13
2023-01-05T12:46:04.876Z,28.67
2023-01-05T12:48:43.389Z,33.80
2023-01-05T12:51:22.924Z,31.25
2023-01-05T12:54:00.856Z,34.50
2023-01-05T12:56:39.836Z,39.67
2023-01-05T12:59:20.603Z,33.30
2023-01-05T13:02:01.134Z,33.50
2023-01-05T13:04:46.960Z,33.08
2023-01-05T13:07:31.461Z,30.98
2023-01-05T13:10:12.358Z,29.52
2023-01-05T13:12:51.699Z,27.63
2023-01-05T13:15:30.603Z,28.95
2023-01-05T13:18:07.787Z,31.13
2023-01-05T13:20:47.565Z,32.72
2023-01-05T13:23:25.532Z,27.95
2023-01-05T13:26:02.466Z,24.65
2023-01-05T13:28:36.125Z,30.73
2023-01-05T13:31:43.278Z,33.95
2023-01-05T13:34:35.145Z,35.63
2023-01-05T13:37:36.091Z,33.70
2023-01-05T13:40:23.157Z,32.55
2023-01-05T13:43:15.596Z,32.40
2023-01-05T13:46:21.588Z,38.63
2023-01-05T13:49:25.833Z,28.75
2023-01-05T13:52:02.652Z,34.17
2023-01-05T13:54:49.239Z,34.55
2023-01-05T13:57:31.725Z,29.65
2023-01-05T14:00:12.156Z,30.67
2023-01-05T14:02:56.177Z,32.22
2023-01-05T14:05:33.129Z,33.33
2023-01-05T14:08:15.637Z,32.10
2023-01-05T14:11:18.478Z,36.22
2023-01-05T14:13:55.269Z,40.08
2023-01-05T14:16:49.695Z,40.92
2023-01-05T14:19:46.341Z,42.75
2023-01-05T14:22:38.532Z,36.65
2023-01-05T14:25:47.933Z,45.45
2023-01-05T14:28:39.008Z,42.75
2023-01-05T14:31:38.694Z,38.72
2023-01-05T14:34:17.758Z,41.50
2023-01-05T14:37:03.951Z,47.30
2023-01-05T14:39:43.917Z,47.90
2023-01-05T14:42:26.801Z,45.92
2023-01-05T14:45:03.327Z,51.72
2023-01-05T14:47:41.938Z,54.25
2023-01-05T14:50:35.228Z,53.28
2023-01-05T14:53:14.472Z,57.08
2023-01-05T14:56:15.858Z,58.38
2023-01-05T14:59:19.961Z,53.85
2023-01-05T15:01:58.226Z,55.60
2023-01-05T15:04:34.622Z,58.35
2023-01-05T15:07:19.547Z,59.47
2023-01-05T15:10:08.062Z,60.40
2023-01-05T15:13:00.112Z,57.05
2023-01-05T15:15:44.271Z,55.47
2023-01-05T15:18:37.649Z,76.60
2023-01-05T15:21:35.235Z,72.95
2023-01-05T15:24:59.355Z,80.75
2023-01-05T15:27:57.557Z,94.32
2023-01-05T15:30:48.772Z,82.60
2023-01-05T15:33:34.532Z,89.88
2023-01-05T15:36:16.113Z,84.60
2023-01-05T15:38:49.590Z,92.05
2023-01-05T15:41:24.389Z,84.88
2023-01-05T15:43:57.833Z,96.70
2023-01-05T15:46:34.438Z,95.78
2023-01-05T15:49:20.387Z,98.85
2023-01-05T15:51:55.756Z,95.85
2023-01-05T15:54:31.696Z,92.43
2023-01-05T15:57:05.135Z,109.55
2023-01-05T15:59:41.303Z,126.05
2023-01-05T16:02:18.749Z,109.93
2023-01-05T16:05:15.270Z,110.55
2023-01-05T16:07:55.506Z,131.88
2023-01-05T16:10:39.106Z,139.07
2023-01-05T16:13:17.233Z,158.45
2023-01-05T16:15:53.699Z,154.48
2023-01-05T16:18:32.317Z,152.52
2023-01-05T16:21:15.651Z,157.93
2023-01-05T16:23:53.592Z,172.18
2023-01-05T16:26:27.685Z,175.95
2023-01-05T16:29:01.536Z,169.88
2023-01-05T16:31:38.682Z,184.15
2023-01-05T16:34:17.603Z,172.43
2023-01-05T16:37:08.445Z,176.25
2023-01-05T16:39:43.544Z,180.10
2023-01-05T16:42:40.908Z,178.15
2023-01-05T16:45:19.874Z,194.98
2023-01-05T16:47:54.443Z,195.50
2023-01-05T16:51:03.453Z,205.90
2023-01-05T16:53:43.370Z,206.13
2023-01-05T16:56:20.593Z,197.18
2023-01-05T16:58:54.072Z,188.00
2023-01-05T17:01:35.766Z,194.88
2023-01-05T17:04:12.427Z,178.80
2023-01-05T17:06:47.703Z,180.38
2023-01-05T17:09:26.063Z,175.93
2023-01-05T17:12:00.202Z,195.88
2023-01-05T17:14:33.969Z,188.43
2023-01-05T17:17:08.064Z,168.98
2023-01-05T17:19:41.756Z,175.07
2023-01-05T17:22:15.062Z,187.73
2023-01-05T17:24:50.255Z,170.55
2023-01-05T17:27:23.606Z,176.90
2023-01-05T17:29:57.125Z,180.40
2023-01-05T17:32:30.324Z,188.55
2023-01-05T17:35:03.514Z,171.98
2023-01-05T17:37:37.111Z,165.13
2023-01-05T17:40:18.312Z,160.68
2023-01-05T17:42:52.147Z,151.95
2023-01-05T17:45:27.542Z,165.75
2023-01-05T17:48:00.746Z,164.65
2023-01-05T17:50:34.103Z,159.32
2023-01-05T17:53:07.331Z,156.07
2023-01-05T17:55:42.817Z,154.73
2023-01-05T17:58:16.955Z,147.75
2023-01-05T18:00:50.641Z,159.27
2023-01-05T18:03:23.852Z,138.32
2023-01-05T18:05:57.152Z,151.20
2023-01-05T18:08:30.713Z,149.82
2023-01-05T18:11:06.597Z,141.10
2023-01-05T18:13:40.855Z,146.95
2023-01-05T18:16:15.560Z,138.23
2023-01-05T18:18:49.018Z,137.63
2023-01-05T18:21:22.329Z,134.70
2023-01-05T18:23:55.588Z,150.82
2023-01-05T18:26:30.144Z,157.65
2023-01-05T18:29:03.610Z,139.77
2023-01-05T18:31:40.109Z,147.43
2023-01-05T18:34:15.494Z,160.85
2023-01-05T18:36:55.605Z,159.93
2023-01-05T18:39:35.598Z,168.98
2023-01-05T18:42:10.587Z,168.05
2023-01-05T18:44:43.795Z,173.57
2023-01-05T18:47:17.665Z,181.02
2023-01-05T18:49:54.038Z,175.45
2023-01-05T18:52:29.366Z,185.93
2023-01-05T18:55:03.785Z,177.45
2023-01-05T18:57:38.416Z,170.88
2023-01-05T19:00:13.270Z,171.13
2023-01-05T19:02:46.543Z,178.60
2023-01-05T19:05:19.784Z,190.00
2023-01-05T19:07:53.826Z,184.82
2023-01-05T19:10:27.573Z,177.20
2023-01-05T19:13:04.541Z,179.65
2023-01-05T19:15:39.187Z,183.45
2023-01-05T19:20:45.726Z,165.40
2023-01-05T19:23:19.183Z,166.57
2023-01-05T19:25:53.165Z,175.60
2023-01-05T19:28:27.835Z,174.38
2023-01-05T19:31:06.031Z,190.00
2023-01-05T19:33:40.835Z,202.13
2023-01-05T19:36:16.722Z,208.70
2023-01-05T19:38:51.114Z,201.25
2023-01-05T19:41:24.889Z,207.73
2023-01-05T19:43:59.987Z,208.85
2023-01-05T19:46:35.471Z,203.25
2023-01-05T19:49:14.276Z,199.20
2023-01-05T19:51:48.156Z,189.70
2023-01-05T19:54:22.454Z,185.10
2023-01-05T19:56:55.954Z,200.73
2023-01-05T19:59:33.905Z,186.40
2023-01-05T20:02:07.822Z,206.75
2023-01-05T20:04:42.575Z,198.10
2023-01-05T20:07:15.889Z,199.60
2023-01-05T20:09:50.890Z,210.15
2023-01-05T20:12:24.768Z,204.52
2023-01-05T20:17:33.466Z,206.82
2023-01-05T20:22:41.830Z,237.20
2023-01-05T20:25:15.273Z,244.77
2023-01-05T20:27:48.519Z,283.80
2023-01-05T20:30:23.263Z,260.73
2023-01-05T20:32:56.468Z,254.38
2023-01-05T20:35:30.087Z,267.88
2023-01-05T20:38:03.607Z,253.80
2023-01-05T20:40:37.453Z,251.52
2023-01-05T20:43:11.671Z,247.82
2023-01-05T20:45:46.511Z,230.02
2023-01-05T20:48:20.282Z,231.23
2023-01-05T20:50:53.653Z,227.82
2023-01-05T20:53:27.361Z,219.05
2023-01-05T20:56:00.665Z,198.25
2023-01-05T20:58:34.407Z,194.23
2023-01-05T21:03:46.082Z,215.07
2023-01-05T21:06:22.802Z,210.38
2023-01-05T21:08:56.866Z,204.30
2023-01-05T21:11:30.497Z,223.95
2023-01-05T21:14:06.382Z,240.02
2023-01-05T21:16:43.983Z,233.57
2023-01-05T21:19:21.022Z,235.20
2023-01-05T21:21:57.142Z,226.80
2023-01-05T21:24:30.596Z,212.85
2023-01-05T21:27:04.047Z,206.05
2023-01-05T21:29:37.463Z,188.60
2023-01-05T21:32:12.228Z,186.85
2023-01-05T21:34:46.138Z,177.50
2023-01-05T21:37:19.468Z,176.30
2023-01-05T21:39:52.836Z,163.85
2023-01-05T21:42:42.498Z,171.15
2023-01-05T21:45:16.116Z,168.20
2023-01-05T21:47:54.865Z,174.15
2023-01-05T21:50:46.467Z,176.38
2023-01-05T21:53:37.545Z,159.07
2023-01-05T21:56:28.167Z,165.20
2023-01-05T21:59:02.844Z,149.98
2023-01-05T22:01:38.801Z,151.85
2023-01-05T22:04:13.965Z,153.30
2023-01-05T22:06:47.540Z,153.00
2023-01-05T22:09:21.659Z,258.83
2023-01-05T22:11:55.634Z,203.68
2023-01-05T22:14:29.403Z,175.55
2023-01-05T22:19:37.543Z,146.77
2023-01-05T22:22:11.038Z,145.75
2023-01-05T22:24:44.733Z,132.60
2023-01-05T22:27:17.983Z,135.70
2023-01-05T22:29:51.207Z,123.88
2023-01-05T22:32:24.474Z,139.27
2023-01-05T22:34:59.067Z,122.15
2023-01-05T22:37:32.623Z,134.30
2023-01-05T22:40:07.657Z,126.32
2023-01-05T22:42:41.040Z,133.35
2023-01-05T22:45:14.411Z,133.68
2023-01-05T22:47:47.634Z,136.98
2023-01-05T22:50:22.456Z,146.63
2023-01-05T22:52:55.664Z,143.25
2023-01-05T22:55:29.890Z,140.95
2023-01-05T22:58:03.274Z,158.50
2023-01-05T23:00:40.040Z,169.48
2023-01-05T23:03:13.564Z,171.50
2023-01-05T23:05:49.306Z,186.77
2023-01-05T23:08:23.224Z,176.02
2023-01-05T23:11:00.686Z,177.57
2023-01-05T23:13:34.548Z,189.18
2023-01-05T23:16:09.488Z,178.63
2023-01-05T23:18:43.558Z,193.30
2023-01-05T23:23:53.018Z,170.00
2023-01-05T23:26:28.011Z,188.02
2023-01-05T23:29:01.538Z,177.95
2023-01-05T23:31:34.942Z,204.40
2023-01-05T23:34:08.156Z,186.07
2023-01-05T23:36:42.689Z,180.05
2023-01-05T23:39:16.146Z,175.15
2023-01-05T23:41:49.701Z,180.75
2023-01-05T23:44:22.946Z,191.63
2023-01-05T23:46:56.319Z,175.75
2023-01-05T23:49:29.528Z,175.77
2023-01-05T23:52:04.206Z,176.98
2023-01-05T23:54:37.667Z,168.95
2023-01-05T23:57:11.360Z,172.32
2023-01-05T23:59:44.733Z,157.05
